Time;durP1;ratioP1;P1;durP2;ratioP2;P2;SDS_P1;SDS_P2;PMS_P1;PMS_P2;Temp;Humidity;BMP_temperature;BMP_pressure;BME280_temperature;BME280_humidity;BME280_pressure;Samples;Min_cycle;Max_cycle;Signal;HPM_P1;HPM_P2
2021/12/07 00:00:08;;;;;;;50.33;26.65;;;;;;;;;;5005174;28;20030;-45
2021/12/07 00:02:35;;;;;;;39.47;23.10;;;;;;;;;;5005094;28;20155;-51
2021/12/07 00:05:01;;;;;;;49.30;28.25;;;;;;;;;;5005300;28;21461;-50
2021/12/07 00:07:27;;;;;;;45.65;24.83;;;;;;;;;;5005396;28;20025;-47
2021/12/07 00:09:53;;;;;;;42.10;25.48;;;;;;;;;;5005780;28;20039;-49
2021/12/07 00:12:19;;;;;;;42.15;24.55;;;;;;;;;;5022177;28;20025;-46
2021/12/07 00:14:45;;;;;;;58.47;29.60;;;;;;;;;;5004828;28;20681;-42
2021/12/07 00:17:12;;;;;;;50.22;27.00;;;;;;;;;;5005579;28;20149;-46
2021/12/07 00:19:38;;;;;;;57.20;30.77;;;;;;;;;;5005529;28;20736;-48
2021/12/07 00:22:06;;;;;;;64.78;34.88;;;;;;;;;;5005271;28;21364;-48
2021/12/07 00:24:32;;;;;;;66.72;36.38;;;;;;;;;;5005487;28;20021;-50
2021/12/07 00:26:58;;;;;;;62.60;35.50;;;;;;;;;;5005063;28;20136;-45
2021/12/07 00:29:24;;;;;;;59.25;33.45;;;;;;;;;;5005431;28;20075;-43
2021/12/07 00:31:55;;;;;;;58.20;32.28;;;;;;;;;;5005264;28;20320;-50
2021/12/07 00:36:58;;;;;;;38.83;22.50;;;;;;;;;;5005406;28;20029;-43
2021/12/07 00:39:25;;;;;;;36.38;22.65;;;;;;;;;;5005139;28;20025;-50
2021/12/07 00:41:53;;;;;;;43.35;25.30;;;;;;;;;;5004659;28;20175;-50
2021/12/07 00:44:19;;;;;;;49.42;27.40;;;;;;;;;;5004433;28;20628;-49
2021/12/07 00:46:46;;;;;;;42.53;25.23;;;;;;;;;;5004648;28;20128;-46
2021/12/07 00:49:12;;;;;;;46.05;26.15;;;;;;;;;;5004618;28;20026;-51
2021/12/07 00:51:38;;;;;;;49.88;27.35;;;;;;;;;;5005210;28;20032;-48
2021/12/07 00:54:07;;;;;;;40.22;23.77;;;;;;;;;;5024275;28;20033;-50
2021/12/07 00:56:33;;;;;;;44.47;26.63;;;;;;;;;;5034311;28;20087;-51
2021/12/07 00:59:00;;;;;;;42.22;24.98;;;;;;;;;;5034279;28;20028;-48
2021/12/07 01:01:26;;;;;;;38.03;22.80;;;;;;;;;;5034216;28;20095;-50
2021/12/07 01:03:52;;;;;;;45.67;25.33;;;;;;;;;;5034369;28;20100;-43
2021/12/07 01:25:09;;;;;;;39.25;22.85;;;;;;;;;;5034398;28;20035;-45
2021/12/07 01:27:35;;;;;;;47.75;26.92;;;;;;;;;;5033362;28;20036;-42
2021/12/07 01:30:18;;;;;;;47.10;25.13;;;;;;;;;;5033873;28;20026;-46
2021/12/07 01:40:42;;;;;;;43.67;24.40;;;;;;;;;;5033880;28;20033;-48
2021/12/07 01:46:39;;;;;;;38.78;22.33;;;;;;;;;;5034009;28;20099;-49
2021/12/07 01:59:55;;;;;;;44.58;24.42;;;;;;;;;;5033658;28;20385;-50
2021/12/07 02:02:23;;;;;;;44.85;24.55;;;;;;;;;;5033565;28;20033;-42
2021/12/07 02:04:49;;;;;;;38.10;22.00;;;;;;;;;;5033375;28;20024;-44
2021/12/07 02:07:16;;;;;;;39.97;23.85;;;;;;;;;;5033391;28;20037;-50
2021/12/07 02:09:46;;;;;;;42.20;23.58;;;;;;;;;;5033350;28;20045;-49
2021/12/07 02:12:15;;;;;;;45.13;24.97;;;;;;;;;;5033284;28;20397;-43
2021/12/07 02:14:45;;;;;;;35.92;21.52;;;;;;;;;;5032762;28;20202;-47
2021/12/07 02:17:13;;;;;;;43.42;22.58;;;;;;;;;;5033226;28;20502;-42
2021/12/07 02:19:43;;;;;;;39.88;22.05;;;;;;;;;;5033332;28;20547;-43
2021/12/07 02:22:10;;;;;;;37.58;21.42;;;;;;;;;;5033252;28;20493;-49
2021/12/07 02:24:37;;;;;;;36.60;21.90;;;;;;;;;;5033312;28;20072;-43
2021/12/07 02:27:03;;;;;;;39.75;23.77;;;;;;;;;;5033092;28;20087;-43
2021/12/07 02:29:29;;;;;;;36.67;21.45;;;;;;;;;;5033143;28;20064;-47
2021/12/07 02:31:58;;;;;;;39.60;23.67;;;;;;;;;;5032988;28;20097;-46
2021/12/07 02:34:25;;;;;;;35.13;20.45;;;;;;;;;;5033053;28;20035;-45
2021/12/07 02:36:54;;;;;;;35.72;21.17;;;;;;;;;;5032967;28;20474;-47
2021/12/07 02:39:28;;;;;;;35.63;20.13;;;;;;;;;;5035011;28;20486;-48
2021/12/07 02:41:56;;;;;;;38.67;21.48;;;;;;;;;;5036956;28;20084;-44
2021/12/07 02:44:22;;;;;;;39.08;22.48;;;;;;;;;;5036975;28;20025;-45
2021/12/07 02:46:48;;;;;;;40.13;22.90;;;;;;;;;;5036873;28;20026;-47
2021/12/07 02:49:14;;;;;;;36.08;20.67;;;;;;;;;;5036862;28;20112;-45
2021/12/07 02:51:40;;;;;;;35.05;21.05;;;;;;;;;;5036922;28;20432;-42
2021/12/07 02:54:06;;;;;;;31.48;19.63;;;;;;;;;;5036883;28;20109;-48
2021/12/07 02:56:33;;;;;;;33.33;20.42;;;;;;;;;;5036701;28;20041;-48
2021/12/07 02:59:02;;;;;;;34.75;20.02;;;;;;;;;;5036912;28;20026;-48
2021/12/07 03:01:32;;;;;;;34.97;20.85;;;;;;;;;;5036639;28;20102;-50
2021/12/07 03:04:08;;;;;;;39.08;21.23;;;;;;;;;;5036642;28;20041;-50
2021/12/07 03:06:50;;;;;;;35.85;20.48;;;;;;;;;;5036664;28;20026;-49
2021/12/07 03:28:27;;;;;;;40.05;22.17;;;;;;;;;;5036283;28;20508;-50
2021/12/07 03:30:54;;;;;;;37.97;21.05;;;;;;;;;;5036216;28;20032;-50
2021/12/07 03:33:20;;;;;;;34.10;19.17;;;;;;;;;;5036196;28;20017;-48
2021/12/07 03:35:46;;;;;;;34.33;20.08;;;;;;;;;;5036068;28;20040;-48
2021/12/07 03:38:12;;;;;;;33.35;19.58;;;;;;;;;;5035972;28;20035;-48
2021/12/07 03:40:38;;;;;;;30.90;19.45;;;;;;;;;;5035978;28;20389;-48
2021/12/07 03:43:05;;;;;;;32.97;18.80;;;;;;;;;;5035865;28;20025;-48
2021/12/07 03:45:34;;;;;;;33.00;19.48;;;;;;;;;;5035761;28;20036;-50
2021/12/07 03:48:01;;;;;;;37.75;20.80;;;;;;;;;;5035847;28;20489;-49
2021/12/07 03:50:27;;;;;;;32.55;19.45;;;;;;;;;;5035356;28;20064;-51
2021/12/07 03:52:54;;;;;;;35.28;19.38;;;;;;;;;;5035976;28;20025;-49
2021/12/07 03:55:20;;;;;;;35.35;19.83;;;;;;;;;;5035668;28;20025;-48
2021/12/07 03:57:47;;;;;;;33.13;18.67;;;;;;;;;;5035663;28;20087;-48
2021/12/07 04:00:15;;;;;;;33.97;18.73;;;;;;;;;;5035806;28;20469;-49
2021/12/07 04:02:41;;;;;;;32.58;19.30;;;;;;;;;;5035553;28;20035;-47
2021/12/07 04:05:14;;;;;;;32.17;19.35;;;;;;;;;;5035484;28;20490;-42
2021/12/07 04:07:41;;;;;;;33.50;20.48;;;;;;;;;;5035508;28;20029;-43
2021/12/07 04:10:09;;;;;;;31.67;19.10;;;;;;;;;;5035375;28;20034;-41
2021/12/07 04:12:36;;;;;;;36.50;20.13;;;;;;;;;;5035432;28;20021;-47
2021/12/07 04:15:03;;;;;;;33.08;19.48;;;;;;;;;;5035067;28;20045;-46
2021/12/07 04:17:29;;;;;;;31.67;19.00;;;;;;;;;;5033910;28;20478;-41
2021/12/07 04:19:55;;;;;;;34.65;20.30;;;;;;;;;;5035433;28;20028;-49
2021/12/07 04:22:21;;;;;;;29.73;18.05;;;;;;;;;;5035265;28;20017;-47
2021/12/07 04:24:50;;;;;;;30.73;18.80;;;;;;;;;;5035111;28;20025;-47
2021/12/07 04:27:16;;;;;;;33.15;20.08;;;;;;;;;;5035210;28;20124;-46
2021/12/07 04:29:42;;;;;;;31.83;20.13;;;;;;;;;;5035182;28;20021;-49
2021/12/07 04:32:08;;;;;;;35.40;21.17;;;;;;;;;;5034878;28;20075;-49
2021/12/07 04:34:34;;;;;;;34.33;19.73;;;;;;;;;;5035111;28;20048;-50
2021/12/07 04:37:00;;;;;;;32.28;20.85;;;;;;;;;;5034917;28;20120;-49
2021/12/07 04:39:26;;;;;;;46.95;25.48;;;;;;;;;;5034903;28;20462;-47
2021/12/07 04:41:53;;;;;;;42.67;25.13;;;;;;;;;;5034808;28;20030;-49
2021/12/07 04:44:22;;;;;;;46.33;26.48;;;;;;;;;;5034668;28;20054;-48
2021/12/07 04:49:47;;;;;;;50.58;28.27;;;;;;;;;;5034583;28;20083;-44
2021/12/07 04:57:44;;;;;;;57.25;30.05;;;;;;;;;;5034437;28;20512;-49
2021/12/07 05:00:39;;;;;;;48.95;25.20;;;;;;;;;;5033403;28;20025;-47
2021/12/07 05:03:11;;;;;;;62.72;33.30;;;;;;;;;;5032155;28;20040;-50
2021/12/07 05:05:45;;;;;;;55.45;29.55;;;;;;;;;;5034330;28;20104;-45
2021/12/07 05:08:15;;;;;;;82.03;38.38;;;;;;;;;;5034322;28;20053;-47
2021/12/07 05:13:26;;;;;;;46.72;25.58;;;;;;;;;;5034111;28;20470;-45
2021/12/07 05:16:05;;;;;;;64.53;33.08;;;;;;;;;;5033969;28;20136;-47
2021/12/07 05:23:58;;;;;;;42.35;22.65;;;;;;;;;;5034753;28;20040;-48
2021/12/07 05:37:41;;;;;;;52.25;25.30;;;;;;;;;;5033780;28;20041;-48
2021/12/07 05:40:08;;;;;;;43.55;24.00;;;;;;;;;;5033773;28;20025;-47
2021/12/07 05:42:38;;;;;;;47.05;24.40;;;;;;;;;;5033693;28;20029;-48
2021/12/07 05:45:05;;;;;;;54.15;27.13;;;;;;;;;;5033889;28;20032;-48
2021/12/07 05:47:31;;;;;;;51.55;25.35;;;;;;;;;;5033692;28;20033;-47
2021/12/07 05:49:58;;;;;;;50.47;26.77;;;;;;;;;;5033669;28;20031;-47
2021/12/07 05:52:24;;;;;;;49.92;25.65;;;;;;;;;;5033733;28;20025;-46
2021/12/07 05:54:50;;;;;;;55.05;27.83;;;;;;;;;;5033591;28;20032;-48
2021/12/07 05:57:16;;;;;;;46.30;24.35;;;;;;;;;;5033432;28;20061;-45
2021/12/07 05:59:42;;;;;;;56.28;28.17;;;;;;;;;;5033821;28;20029;-45
2021/12/07 06:02:09;;;;;;;61.53;28.98;;;;;;;;;;5033458;28;20488;-48
2021/12/07 06:04:35;;;;;;;63.03;31.92;;;;;;;;;;5033386;28;20053;-48
2021/12/07 06:07:01;;;;;;;93.38;45.28;;;;;;;;;;5033474;28;20026;-48
2021/12/07 06:09:27;;;;;;;62.25;30.45;;;;;;;;;;5033462;28;20373;-46
2021/12/07 06:11:54;;;;;;;53.40;28.52;;;;;;;;;;5033317;28;20025;-48
2021/12/07 06:14:31;;;;;;;63.72;30.27;;;;;;;;;;5033432;28;20484;-48
2021/12/07 06:16:58;;;;;;;53.13;27.50;;;;;;;;;;5033296;28;20129;-47
2021/12/07 06:19:24;;;;;;;56.08;27.17;;;;;;;;;;5033367;28;20028;-47
2021/12/07 06:21:50;;;;;;;55.20;28.48;;;;;;;;;;5033475;28;20032;-47
2021/12/07 06:24:16;;;;;;;63.95;30.40;;;;;;;;;;5033243;28;20048;-48
2021/12/07 06:26:42;;;;;;;58.67;29.10;;;;;;;;;;5033102;28;20033;-48
2021/12/07 06:29:08;;;;;;;54.47;29.20;;;;;;;;;;5033543;28;20021;-48
2021/12/07 06:31:34;;;;;;;53.78;28.75;;;;;;;;;;5033537;28;20083;-46
2021/12/07 06:34:01;;;;;;;54.13;27.35;;;;;;;;;;5033049;28;20390;-46
2021/12/07 06:36:27;;;;;;;60.75;30.73;;;;;;;;;;5033162;28;20040;-47
2021/12/07 06:38:53;;;;;;;61.08;31.98;;;;;;;;;;5033091;28;20068;-45
2021/12/07 06:41:20;;;;;;;58.70;32.83;;;;;;;;;;5033088;28;20063;-45
2021/12/07 06:43:46;;;;;;;58.42;29.15;;;;;;;;;;5033151;28;20068;-46
2021/12/07 06:46:12;;;;;;;59.78;31.25;;;;;;;;;;5033179;28;20079;-46
2021/12/07 06:48:38;;;;;;;57.42;29.45;;;;;;;;;;5033099;28;20154;-46
2021/12/07 06:51:04;;;;;;;45.45;25.20;;;;;;;;;;5033064;28;20053;-46
2021/12/07 06:53:35;;;;;;;48.15;26.40;;;;;;;;;;5033009;28;20033;-46
2021/12/07 06:56:05;;;;;;;55.85;29.10;;;;;;;;;;5033014;28;20119;-46
2021/12/07 06:58:31;;;;;;;52.42;28.90;;;;;;;;;;5033051;28;20028;-44
2021/12/07 07:00:57;;;;;;;48.47;27.02;;;;;;;;;;5031757;28;20029;-45
2021/12/07 07:03:24;;;;;;;50.08;27.70;;;;;;;;;;5033175;28;20029;-44
2021/12/07 07:05:50;;;;;;;50.38;27.63;;;;;;;;;;5033007;28;20025;-46
2021/12/07 07:08:16;;;;;;;44.78;25.10;;;;;;;;;;5031986;28;20036;-46
2021/12/07 07:10:42;;;;;;;43.45;23.95;;;;;;;;;;5032780;28;20064;-45
2021/12/07 07:13:08;;;;;;;44.10;24.67;;;;;;;;;;5032687;28;20473;-45
2021/12/07 07:15:35;;;;;;;41.03;23.30;;;;;;;;;;5032578;28;20099;-46
2021/12/07 07:18:01;;;;;;;48.00;25.80;;;;;;;;;;5032861;28;20056;-46
2021/12/07 07:20:27;;;;;;;52.22;26.30;;;;;;;;;;5032756;28;20052;-46
2021/12/07 07:22:54;;;;;;;44.53;23.95;;;;;;;;;;5032966;28;20033;-46
2021/12/07 07:25:20;;;;;;;45.22;25.20;;;;;;;;;;5033368;28;20127;-46
2021/12/07 07:27:46;;;;;;;43.20;24.45;;;;;;;;;;5036198;28;20022;-46
2021/12/07 07:30:13;;;;;;;39.90;22.65;;;;;;;;;;5034942;28;20441;-46
2021/12/07 07:32:42;;;;;;;41.42;24.60;;;;;;;;;;5036310;28;20040;-46
2021/12/07 07:35:10;;;;;;;44.75;25.33;;;;;;;;;;5034905;28;20029;-47
2021/12/07 07:37:36;;;;;;;43.60;23.20;;;;;;;;;;5036491;28;20037;-47
2021/12/07 07:40:04;;;;;;;43.08;23.40;;;;;;;;;;5036347;28;20045;-46
2021/12/07 07:42:30;;;;;;;48.13;24.73;;;;;;;;;;5034915;28;20087;-44
2021/12/07 07:44:56;;;;;;;44.20;24.70;;;;;;;;;;5036218;28;20116;-45
2021/12/07 07:47:22;;;;;;;41.50;23.80;;;;;;;;;;5036052;28;20040;-46
2021/12/07 07:49:50;;;;;;;43.53;25.58;;;;;;;;;;5035933;28;20025;-46
2021/12/07 07:52:16;;;;;;;45.35;25.42;;;;;;;;;;5036161;28;20044;-44
2021/12/07 07:54:43;;;;;;;46.92;25.95;;;;;;;;;;5035871;28;20100;-45
2021/12/07 07:57:09;;;;;;;50.58;26.80;;;;;;;;;;5034576;28;20037;-46
2021/12/07 07:59:38;;;;;;;39.85;23.08;;;;;;;;;;5035703;28;20049;-47
2021/12/07 08:02:05;;;;;;;51.05;28.02;;;;;;;;;;5035625;28;20056;-47
2021/12/07 08:04:31;;;;;;;58.65;32.88;;;;;;;;;;5036023;28;20030;-47
2021/12/07 08:06:57;;;;;;;48.05;26.20;;;;;;;;;;5035565;28;20072;-46
2021/12/07 08:09:23;;;;;;;50.17;27.17;;;;;;;;;;5035629;28;20444;-46
2021/12/07 08:11:49;;;;;;;46.90;26.48;;;;;;;;;;5035504;28;20029;-46
2021/12/07 08:14:18;;;;;;;52.95;27.90;;;;;;;;;;5035810;28;20052;-47
2021/12/07 08:16:46;;;;;;;47.25;25.70;;;;;;;;;;5035107;28;20144;-46
2021/12/07 08:19:12;;;;;;;51.58;27.58;;;;;;;;;;5035318;28;20028;-46
2021/12/07 08:21:39;;;;;;;53.10;29.67;;;;;;;;;;5035276;28;20036;-45
2021/12/07 08:24:07;;;;;;;63.17;33.17;;;;;;;;;;5035669;28;20033;-46
2021/12/07 08:26:37;;;;;;;54.78;29.35;;;;;;;;;;5035157;28;20040;-46
2021/12/07 08:29:03;;;;;;;60.83;31.80;;;;;;;;;;5035162;28;20477;-45
2021/12/07 08:31:29;;;;;;;60.80;31.80;;;;;;;;;;5034978;28;20120;-44
2021/12/07 08:33:55;;;;;;;60.55;31.85;;;;;;;;;;5033777;28;20021;-45
2021/12/07 08:36:21;;;;;;;54.35;29.63;;;;;;;;;;5034831;28;20060;-45
2021/12/07 08:38:49;;;;;;;85.18;41.10;;;;;;;;;;5034915;28;20441;-44
2021/12/07 08:41:16;;;;;;;61.30;30.58;;;;;;;;;;5034725;28;20030;-46
2021/12/07 08:43:42;;;;;;;63.35;32.70;;;;;;;;;;5035001;28;20029;-47
2021/12/07 08:46:09;;;;;;;55.53;31.15;;;;;;;;;;5034782;28;20056;-47
2021/12/07 08:48:35;;;;;;;61.88;33.63;;;;;;;;;;5034754;28;20056;-45
2021/12/07 08:51:02;;;;;;;80.43;39.15;;;;;;;;;;5034677;28;20120;-45
2021/12/07 08:53:29;;;;;;;66.65;31.88;;;;;;;;;;5034711;28;20018;-44
2021/12/07 09:01:31;;;;;;;63.35;33.63;;;;;;;;;;5033854;28;20057;-45
2021/12/07 09:03:58;;;;;;;70.78;35.83;;;;;;;;;;5034578;28;20481;-47
2021/12/07 09:06:24;;;;;;;50.05;27.02;;;;;;;;;;5033130;28;20034;-46
2021/12/07 09:08:51;;;;;;;74.32;36.10;;;;;;;;;;5034422;28;20021;-46
2021/12/07 09:11:17;;;;;;;71.85;37.40;;;;;;;;;;5034456;28;20033;-47
2021/12/07 09:13:44;;;;;;;63.88;33.00;;;;;;;;;;5034257;28;20029;-45
2021/12/07 09:16:14;;;;;;;55.40;29.83;;;;;;;;;;5034006;28;20049;-47
2021/12/07 09:18:43;;;;;;;59.00;31.63;;;;;;;;;;5034183;28;20026;-47
2021/12/07 09:21:12;;;;;;;63.95;34.03;;;;;;;;;;5034189;28;20178;-48
2021/12/07 09:23:38;;;;;;;65.72;33.50;;;;;;;;;;5034189;28;20017;-47
2021/12/07 09:26:08;;;;;;;70.15;36.95;;;;;;;;;;5034012;28;20381;-46
2021/12/07 09:28:34;;;;;;;69.28;34.03;;;;;;;;;;5034092;28;20025;-47
2021/12/07 09:31:00;;;;;;;80.22;40.20;;;;;;;;;;5033976;28;20420;-47
2021/12/07 09:33:28;;;;;;;73.53;36.83;;;;;;;;;;5033951;28;20049;-47
2021/12/07 09:35:54;;;;;;;77.32;38.83;;;;;;;;;;5033929;28;20040;-46
2021/12/07 09:38:21;;;;;;;49.25;27.15;;;;;;;;;;5034011;28;20021;-47
2021/12/07 09:40:48;;;;;;;78.15;37.30;;;;;;;;;;5033858;28;20032;-47
2021/12/07 09:43:14;;;;;;;67.95;33.88;;;;;;;;;;5033672;28;20095;-47
2021/12/07 09:45:41;;;;;;;61.22;33.65;;;;;;;;;;5033880;28;20041;-46
2021/12/07 09:48:10;;;;;;;61.65;32.15;;;;;;;;;;5033321;28;20028;-46
2021/12/07 09:50:37;;;;;;;56.35;29.02;;;;;;;;;;5033616;28;20044;-46
2021/12/07 09:53:06;;;;;;;56.25;30.75;;;;;;;;;;5033646;28;20021;-46
2021/12/07 09:55:33;;;;;;;56.90;29.33;;;;;;;;;;5033717;28;20445;-45
2021/12/07 09:57:59;;;;;;;51.10;26.95;;;;;;;;;;5033575;28;20053;-48
2021/12/07 10:00:25;;;;;;;62.05;32.30;;;;;;;;;;5033668;28;20030;-44
2021/12/07 10:02:52;;;;;;;78.38;40.08;;;;;;;;;;5033469;28;20125;-46
2021/12/07 10:05:19;;;;;;;65.45;34.05;;;;;;;;;;5033304;28;20021;-49
2021/12/07 10:07:46;;;;;;;72.35;37.85;;;;;;;;;;5033572;28;20049;-49
2021/12/07 10:10:20;;;;;;;68.55;32.90;;;;;;;;;;5033463;28;20382;-47
2021/12/07 10:12:46;;;;;;;49.97;26.17;;;;;;;;;;5033511;28;20049;-47
2021/12/07 10:15:15;;;;;;;64.57;32.13;;;;;;;;;;5033250;28;20046;-44
2021/12/07 10:17:42;;;;;;;50.22;26.17;;;;;;;;;;5033381;28;20412;-47
2021/12/07 10:20:32;;;;;;;56.53;29.25;;;;;;;;;;5033670;28;20025;-47
2021/12/07 10:23:02;;;;;;;60.22;31.33;;;;;;;;;;5033365;28;20055;-42
2021/12/07 10:25:30;;;;;;;54.08;28.90;;;;;;;;;;5033236;28;20032;-48
2021/12/07 10:27:57;;;;;;;57.05;31.13;;;;;;;;;;5033156;28;20048;-46
2021/12/07 10:30:27;;;;;;;42.95;25.02;;;;;;;;;;5033359;28;20028;-48
2021/12/07 10:33:00;;;;;;;56.78;29.42;;;;;;;;;;5033240;28;20421;-49
2021/12/07 10:35:34;;;;;;;47.65;27.15;;;;;;;;;;5033068;28;20036;-45
2021/12/07 10:38:19;;;;;;;49.92;25.85;;;;;;;;;;5033441;28;20033;-49
2021/12/07 10:40:58;;;;;;;47.00;27.92;;;;;;;;;;5033244;28;20024;-49
2021/12/07 10:43:40;;;;;;;47.10;25.88;;;;;;;;;;5033203;28;20036;-47
2021/12/07 10:46:24;;;;;;;54.15;28.25;;;;;;;;;;5033200;28;20104;-48
2021/12/07 10:48:50;;;;;;;58.22;29.10;;;;;;;;;;5033132;28;20104;-49
2021/12/07 10:51:17;;;;;;;108.75;45.13;;;;;;;;;;5033057;28;20389;-47
2021/12/07 10:53:53;;;;;;;75.60;34.88;;;;;;;;;;5033481;28;20049;-49
2021/12/07 10:56:32;;;;;;;64.65;32.85;;;;;;;;;;5032975;28;20076;-47
2021/12/07 10:59:02;;;;;;;62.90;29.77;;;;;;;;;;5033318;28;20032;-49
2021/12/07 11:01:36;;;;;;;65.80;30.05;;;;;;;;;;5036759;28;20113;-49
2021/12/07 11:04:20;;;;;;;40.30;22.85;;;;;;;;;;5036694;28;20021;-49
2021/12/07 11:07:07;;;;;;;47.55;26.42;;;;;;;;;;5036790;28;20041;-44
2021/12/07 11:09:40;;;;;;;48.60;26.17;;;;;;;;;;5036567;28;20037;-50
2021/12/07 11:12:08;;;;;;;52.15;26.25;;;;;;;;;;5036756;28;20022;-50
2021/12/07 11:14:40;;;;;;;51.90;27.05;;;;;;;;;;5036431;28;20052;-50
2021/12/07 11:17:07;;;;;;;44.72;24.88;;;;;;;;;;5036653;28;20401;-50
2021/12/07 11:19:34;;;;;;;49.95;26.48;;;;;;;;;;5036622;28;20040;-48
2021/12/07 11:22:01;;;;;;;53.22;27.88;;;;;;;;;;5036426;28;20024;-49
2021/12/07 11:24:37;;;;;;;49.00;26.65;;;;;;;;;;5036356;28;20026;-48
2021/12/07 11:29:59;;;;;;;52.60;26.90;;;;;;;;;;5036262;28;20155;-51
2021/12/07 11:32:25;;;;;;;54.33;30.27;;;;;;;;;;5036240;28;20084;-51
2021/12/07 11:34:51;;;;;;;46.50;25.48;;;;;;;;;;5036231;28;20021;-51
2021/12/07 11:37:17;;;;;;;51.92;28.13;;;;;;;;;;5034687;28;20401;-49
2021/12/07 11:39:50;;;;;;;61.78;31.20;;;;;;;;;;5035975;28;20032;-49
2021/12/07 11:42:16;;;;;;;48.50;25.42;;;;;;;;;;5035991;28;20024;-50
2021/12/07 11:44:48;;;;;;;50.85;26.17;;;;;;;;;;5036235;28;20040;-48
2021/12/07 11:47:14;;;;;;;51.78;27.73;;;;;;;;;;5035938;28;20489;-48
2021/12/07 11:49:40;;;;;;;55.70;27.60;;;;;;;;;;5036012;28;20037;-51
2021/12/07 11:52:10;;;;;;;54.85;28.25;;;;;;;;;;5035877;28;20508;-49
2021/12/07 11:54:39;;;;;;;50.70;27.10;;;;;;;;;;5035814;28;20075;-50
2021/12/07 11:57:07;;;;;;;49.50;26.83;;;;;;;;;;5035685;28;20068;-50
2021/12/07 11:59:33;;;;;;;46.42;26.17;;;;;;;;;;5035645;28;20113;-50
2021/12/07 12:01:59;;;;;;;51.15;27.67;;;;;;;;;;5035763;28;20494;-50
2021/12/07 12:04:25;;;;;;;53.38;29.30;;;;;;;;;;5035518;28;20021;-50
2021/12/07 12:06:53;;;;;;;55.92;30.27;;;;;;;;;;5035689;28;20034;-50
2021/12/07 12:09:20;;;;;;;49.28;28.20;;;;;;;;;;5035509;28;20029;-50
2021/12/07 12:11:59;;;;;;;105.45;28.77;;;;;;;;;;5035534;28;20025;-50
2021/12/07 12:14:37;;;;;;;42.28;23.70;;;;;;;;;;5035414;28;20025;-50
2021/12/07 12:17:13;;;;;;;58.17;27.85;;;;;;;;;;5035459;28;20083;-50
2021/12/07 12:19:49;;;;;;;55.80;27.77;;;;;;;;;;5035249;28;20088;-50
2021/12/07 12:22:17;;;;;;;45.30;23.48;;;;;;;;;;5035462;28;20397;-51
2021/12/07 12:24:53;;;;;;;52.33;26.15;;;;;;;;;;5035493;28;20060;-48
2021/12/07 12:27:22;;;;;;;49.88;25.98;;;;;;;;;;5035251;28;20029;-51
2021/12/07 12:29:51;;;;;;;53.78;27.35;;;;;;;;;;5035267;28;20029;-51
2021/12/07 12:32:31;;;;;;;51.78;27.17;;;;;;;;;;5034985;28;20087;-50
2021/12/07 12:34:59;;;;;;;56.97;30.35;;;;;;;;;;5034904;28;20017;-50
2021/12/07 12:37:31;;;;;;;48.85;27.00;;;;;;;;;;5034878;28;20030;-50
2021/12/07 12:40:07;;;;;;;49.50;25.17;;;;;;;;;;5035136;28;20026;-50
2021/12/07 12:42:43;;;;;;;47.08;25.38;;;;;;;;;;5035139;28;20026;-51
2021/12/07 12:45:22;;;;;;;43.90;23.80;;;;;;;;;;5035105;28;20038;-48
2021/12/07 12:48:05;;;;;;;38.97;22.63;;;;;;;;;;5034884;28;20484;-50
2021/12/07 12:50:53;;;;;;;40.92;22.77;;;;;;;;;;5034757;28;20025;-49
2021/12/07 12:53:23;;;;;;;47.72;25.42;;;;;;;;;;5034598;28;20029;-49
2021/12/07 12:56:09;;;;;;;56.28;29.27;;;;;;;;;;5034576;28;20025;-49
2021/12/07 12:58:39;;;;;;;48.47;25.40;;;;;;;;;;5034497;28;20036;-49
2021/12/07 13:01:16;;;;;;;49.88;26.70;;;;;;;;;;5034576;28;20386;-49
2021/12/07 13:03:59;;;;;;;47.17;24.85;;;;;;;;;;5034663;28;20497;-49
2021/12/07 13:06:28;;;;;;;44.08;23.73;;;;;;;;;;5034621;28;20029;-49
2021/12/07 13:08:59;;;;;;;41.80;23.52;;;;;;;;;;5034548;28;20109;-48
2021/12/07 13:11:45;;;;;;;42.63;22.95;;;;;;;;;;5034450;28;20018;-49
2021/12/07 13:14:14;;;;;;;36.17;21.25;;;;;;;;;;5034422;28;20036;-49
2021/12/07 13:17:01;;;;;;;43.38;22.58;;;;;;;;;;5033924;28;20060;-48
2021/12/07 13:19:28;;;;;;;43.90;22.58;;;;;;;;;;5034180;28;20025;-49
2021/12/07 13:21:58;;;;;;;36.03;19.70;;;;;;;;;;5033731;28;20488;-49
2021/12/07 13:24:33;;;;;;;37.42;21.38;;;;;;;;;;5034613;28;20044;-50
2021/12/07 13:26:59;;;;;;;51.72;26.10;;;;;;;;;;5032684;28;20472;-50
2021/12/07 13:29:27;;;;;;;44.63;24.98;;;;;;;;;;5034005;28;20458;-49
2021/12/07 13:31:55;;;;;;;44.67;24.42;;;;;;;;;;5033955;28;20470;-49
2021/12/07 13:34:34;;;;;;;41.72;23.30;;;;;;;;;;5033982;28;20021;-50
2021/12/07 13:37:01;;;;;;;38.30;20.48;;;;;;;;;;5032520;28;20036;-50
2021/12/07 13:39:32;;;;;;;35.78;21.08;;;;;;;;;;5033868;28;20071;-50
2021/12/07 13:42:16;;;;;;;33.80;19.50;;;;;;;;;;5033987;28;20029;-49
2021/12/07 13:44:46;;;;;;;30.95;19.00;;;;;;;;;;5033814;28;20037;-50
2021/12/07 13:47:16;;;;;;;36.15;20.30;;;;;;;;;;5033902;28;20026;-50
2021/12/07 13:49:46;;;;;;;34.95;19.02;;;;;;;;;;5033636;28;20466;-49
2021/12/07 13:52:17;;;;;;;32.40;19.45;;;;;;;;;;5033584;28;20021;-46
2021/12/07 13:54:44;;;;;;;36.63;19.33;;;;;;;;;;5033602;28;20036;-49
2021/12/07 13:57:21;;;;;;;35.28;19.80;;;;;;;;;;5033768;28;20283;-50
2021/12/07 14:00:06;;;;;;;35.50;19.63;;;;;;;;;;5033635;28;20083;-49
2021/12/07 14:02:32;;;;;;;36.42;20.08;;;;;;;;;;5033516;28;20030;-50
2021/12/07 14:05:10;;;;;;;36.08;18.65;;;;;;;;;;5033526;28;20029;-50
2021/12/07 14:07:36;;;;;;;25.75;16.30;;;;;;;;;;5033473;28;20048;-49
2021/12/07 14:10:07;;;;;;;35.08;18.48;;;;;;;;;;5033389;28;20029;-49
2021/12/07 14:12:33;;;;;;;33.72;18.75;;;;;;;;;;5031966;28;20375;-49
2021/12/07 14:15:15;;;;;;;33.38;19.23;;;;;;;;;;5033494;28;20049;-49
2021/12/07 14:17:42;;;;;;;32.63;17.88;;;;;;;;;;5033298;28;20034;-49
2021/12/07 14:20:11;;;;;;;32.70;16.20;;;;;;;;;;5033427;28;20033;-49
2021/12/07 14:22:37;;;;;;;30.90;16.83;;;;;;;;;;5033163;28;20029;-50
2021/12/07 14:25:04;;;;;;;30.52;17.23;;;;;;;;;;5033357;28;20021;-51
2021/12/07 14:27:30;;;;;;;29.90;17.23;;;;;;;;;;5033342;28;20446;-50
2021/12/07 14:29:56;;;;;;;32.92;15.77;;;;;;;;;;5033110;28;20104;-50
2021/12/07 14:32:22;;;;;;;32.35;16.75;;;;;;;;;;5033598;28;20567;-49
2021/12/07 14:34:49;;;;;;;34.25;18.50;;;;;;;;;;5036051;28;20029;-49
2021/12/07 14:37:18;;;;;;;39.88;20.40;;;;;;;;;;5037208;28;20385;-50
2021/12/07 14:39:49;;;;;;;33.50;19.35;;;;;;;;;;5037239;28;20485;-50
2021/12/07 14:42:17;;;;;;;32.88;17.95;;;;;;;;;;5037156;28;20079;-50
2021/12/07 14:44:45;;;;;;;31.38;17.60;;;;;;;;;;5037303;28;20112;-48
2021/12/07 14:47:12;;;;;;;32.85;17.95;;;;;;;;;;5037029;28;20032;-49
2021/12/07 14:49:41;;;;;;;31.88;17.58;;;;;;;;;;5037201;28;20474;-46
2021/12/07 14:52:11;;;;;;;32.00;18.45;;;;;;;;;;5037359;28;20036;-49
2021/12/07 14:54:37;;;;;;;30.67;16.27;;;;;;;;;;5036773;28;20022;-48
2021/12/07 14:57:05;;;;;;;30.92;15.90;;;;;;;;;;5036350;28;20083;-47
2021/12/07 14:59:35;;;;;;;30.92;16.48;;;;;;;;;;5036315;28;20378;-48
2021/12/07 15:02:01;;;;;;;32.58;16.50;;;;;;;;;;5035323;28;20028;-49
2021/12/07 15:04:27;;;;;;;44.58;24.48;;;;;;;;;;5035510;28;20374;-51
2021/12/07 15:06:58;;;;;;;43.03;22.92;;;;;;;;;;5036197;28;20532;-51
2021/12/07 15:09:26;;;;;;;62.38;27.33;;;;;;;;;;5036527;28;20067;-50
2021/12/07 15:11:55;;;;;;;42.85;21.75;;;;;;;;;;5036542;28;20034;-45
2021/12/07 15:14:23;;;;;;;51.67;23.50;;;;;;;;;;5035289;28;20021;-49
2021/12/07 15:16:55;;;;;;;41.67;19.70;;;;;;;;;;5036346;28;20061;-50
2021/12/07 15:19:22;;;;;;;31.70;16.02;;;;;;;;;;5035854;28;20025;-45
2021/12/07 15:21:48;;;;;;;30.90;16.70;;;;;;;;;;5036320;28;20028;-43
2021/12/07 15:24:24;;;;;;;29.65;17.20;;;;;;;;;;5036251;28;20075;-42
2021/12/07 15:26:51;;;;;;;30.73;17.20;;;;;;;;;;5036113;28;20071;-44
2021/12/07 15:29:19;;;;;;;35.97;19.27;;;;;;;;;;5036403;28;20037;-44
2021/12/07 15:31:48;;;;;;;33.75;17.80;;;;;;;;;;5035966;28;20040;-46
2021/12/07 15:34:15;;;;;;;47.15;24.00;;;;;;;;;;5035591;28;20032;-46
2021/12/07 15:36:45;;;;;;;44.83;21.05;;;;;;;;;;5035385;28;20036;-48
2021/12/07 15:39:11;;;;;;;59.17;28.08;;;;;;;;;;5035431;28;20014;-45
2021/12/07 15:41:39;;;;;;;44.15;22.42;;;;;;;;;;5035417;28;20095;-48
2021/12/07 15:44:05;;;;;;;44.90;23.63;;;;;;;;;;5035535;28;20369;-43
2021/12/07 15:46:31;;;;;;;44.70;24.45;;;;;;;;;;5034377;28;20026;-43
2021/12/07 15:48:57;;;;;;;54.30;27.45;;;;;;;;;;5035362;28;20022;-42
2021/12/07 15:51:24;;;;;;;61.78;31.33;;;;;;;;;;5034986;28;20021;-42
2021/12/07 15:53:54;;;;;;;71.80;36.03;;;;;;;;;;5034903;28;20025;-44
2021/12/07 15:56:21;;;;;;;71.65;35.40;;;;;;;;;;5034956;28;20094;-43
2021/12/07 15:58:47;;;;;;;104.80;46.97;;;;;;;;;;5035146;28;20018;-42
2021/12/07 16:01:14;;;;;;;82.50;39.55;;;;;;;;;;5035110;28;20113;-44
2021/12/07 16:03:41;;;;;;;97.40;44.22;;;;;;;;;;5035022;28;20029;-45